sensor_id;sensor_type;location;lat;lon;timestamp;temperature;humidity
24232;DHT22;12364;47.810;8.810;2023-08-30T03:47:07;16.80;99.90
24232;DHT22;12364;47.810;8.810;2023-08-30T03:49:34;16.80;99.90
24232;DHT22;12364;47.810;8.810;2023-08-30T03:52:02;16.80;99.90
24232;DHT22;12364;47.810;8.810;2023-08-30T03:54:29;16.80;99.90
24232;DHT22;12364;47.810;8.810;2023-08-30T03:56:56;16.80;99.90
24232;DHT22;12364;47.810;8.810;2023-08-30T03:59:23;16.80;99.90
24232;DHT22;12364;47.810;8.810;2023-08-30T04:01:54;16.80;99.90
24232;DHT22;12364;47.810;8.810;2023-08-30T04:04:21;16.80;99.90
24232;DHT22;12364;47.810;8.810;2023-08-30T04:06:48;16.80;99.90
24232;DHT22;12364;47.810;8.810;2023-08-30T04:09:15;16.80;99.90
24232;DHT22;12364;47.810;8.810;2023-08-30T04:11:42;16.90;99.90
24232;DHT22;12364;47.810;8.810;2023-08-30T04:14:09;16.90;99.90
24232;DHT22;12364;47.810;8.810;2023-08-30T04:16:36;17.00;99.90
24232;DHT22;12364;47.810;8.810;2023-08-30T04:19:04;16.90;99.90
24232;DHT22;12364;47.810;8.810;2023-08-30T04:21:31;16.90;99.90
24232;DHT22;12364;47.810;8.810;2023-08-30T04:23:58;16.90;99.90
24232;DHT22;12364;47.810;8.810;2023-08-30T04:26:25;16.90;99.90
24232;DHT22;12364;47.810;8.810;2023-08-30T04:28:52;16.90;99.90
24232;DHT22;12364;47.810;8.810;2023-08-30T04:31:19;16.80;99.90
24232;DHT22;12364;47.810;8.810;2023-08-30T04:33:46;16.90;99.90
24232;DHT22;12364;47.810;8.810;2023-08-30T04:36:13;16.90;99.90
24232;DHT22;12364;47.810;8.810;2023-08-30T04:38:40;16.70;99.90
24232;DHT22;12364;47.810;8.810;2023-08-30T04:41:22;16.70;99.90
24232;DHT22;12364;47.810;8.810;2023-08-30T04:43:49;16.70;99.90
24232;DHT22;12364;47.810;8.810;2023-08-30T04:46:16;16.60;99.90
24232;DHT22;12364;47.810;8.810;2023-08-30T04:48:43;16.60;99.90
24232;DHT22;12364;47.810;8.810;2023-08-30T04:51:10;16.60;99.90
24232;DHT22;12364;47.810;8.810;2023-08-30T04:53:37;16.60;99.90
24232;DHT22;12364;47.810;8.810;2023-08-30T04:56:11;16.70;99.90
24232;DHT22;12364;47.810;8.810;2023-08-30T04:58:38;16.70;99.90
24232;DHT22;12364;47.810;8.810;2023-08-30T05:01:06;16.60;99.90
24232;DHT22;12364;47.810;8.810;2023-08-30T05:03:33;16.70;99.90
24232;DHT22;12364;47.810;8.810;2023-08-30T05:06:01;16.60;99.90
24232;DHT22;12364;47.810;8.810;2023-08-30T05:08:28;16.70;99.90
24232;DHT22;12364;47.810;8.810;2023-08-30T05:10:55;16.70;99.90
24232;DHT22;12364;47.810;8.810;2023-08-30T05:13:22;16.70;99.90
24232;DHT22;12364;47.810;8.810;2023-08-30T05:15:49;16.70;99.90
24232;DHT22;12364;47.810;8.810;2023-08-30T05:18:16;16.70;99.90
24232;DHT22;12364;47.810;8.810;2023-08-30T05:20:43;16.70;99.90
24232;DHT22;12364;47.810;8.810;2023-08-30T05:23:10;16.70;99.90
24232;DHT22;12364;47.810;8.810;2023-08-30T05:25:37;16.90;99.90
24232;DHT22;12364;47.810;8.810;2023-08-30T05:28:04;16.70;99.90
24232;DHT22;12364;47.810;8.810;2023-08-30T05:30:31;16.70;99.90
24232;DHT22;12364;47.810;8.810;2023-08-30T05:32:59;16.70;99.90
24232;DHT22;12364;47.810;8.810;2023-08-30T05:35:26;16.80;99.90
24232;DHT22;12364;47.810;8.810;2023-08-30T05:37:53;16.70;99.90
24232;DHT22;12364;47.810;8.810;2023-08-30T05:40:20;16.80;99.90
24232;DHT22;12364;47.810;8.810;2023-08-30T05:42:47;16.80;99.90
24232;DHT22;12364;47.810;8.810;2023-08-30T05:45:14;17.00;99.90
24232;DHT22;12364;47.810;8.810;2023-08-30T05:47:41;16.80;99.90
24232;DHT22;12364;47.810;8.810;2023-08-30T05:50:08;16.80;99.90
24232;DHT22;12364;47.810;8.810;2023-08-30T05:52:35;16.80;99.90
24232;DHT22;12364;47.810;8.810;2023-08-30T05:55:02;16.80;99.90
24232;DHT22;12364;47.810;8.810;2023-08-30T05:57:29;16.80;99.90
24232;DHT22;12364;47.810;8.810;2023-08-30T06:00:00;16.80;99.90
24232;DHT22;12364;47.810;8.810;2023-08-30T06:02:27;16.80;99.90
24232;DHT22;12364;47.810;8.810;2023-08-30T06:04:55;16.90;99.90
24232;DHT22;12364;47.810;8.810;2023-08-30T06:07:22;16.90;99.90
24232;DHT22;12364;47.810;8.810;2023-08-30T06:09:49;16.80;99.90
24232;DHT22;12364;47.810;8.810;2023-08-30T06:12:16;16.80;99.90
24232;DHT22;12364;47.810;8.810;2023-08-30T06:14:43;16.80;99.90
24232;DHT22;12364;47.810;8.810;2023-08-30T06:17:16;16.80;99.90
24232;DHT22;12364;47.810;8.810;2023-08-30T06:19:44;16.90;99.90
24232;DHT22;12364;47.810;8.810;2023-08-30T06:22:11;16.90;99.90
24232;DHT22;12364;47.810;8.810;2023-08-30T06:24:38;16.90;99.90
24232;DHT22;12364;47.810;8.810;2023-08-30T06:27:05;17.00;99.90
24232;DHT22;12364;47.810;8.810;2023-08-30T06:29:32;17.00;99.90
24232;DHT22;12364;47.810;8.810;2023-08-30T06:31:59;17.00;99.90
24232;DHT22;12364;47.810;8.810;2023-08-30T06:34:26;17.00;99.90
24232;DHT22;12364;47.810;8.810;2023-08-30T06:36:53;17.00;99.90
24232;DHT22;12364;47.810;8.810;2023-08-30T06:39:20;17.00;99.90
24232;DHT22;12364;47.810;8.810;2023-08-30T06:41:47;17.00;99.90
24232;DHT22;12364;47.810;8.810;2023-08-30T06:44:14;17.20;99.90
24232;DHT22;12364;47.810;8.810;2023-08-30T06:46:42;16.90;99.90
24232;DHT22;12364;47.810;8.810;2023-08-30T06:49:09;17.00;99.90
24232;DHT22;12364;47.810;8.810;2023-08-30T06:51:36;17.00;99.90
24232;DHT22;12364;47.810;8.810;2023-08-30T06:54:03;17.00;99.90
24232;DHT22;12364;47.810;8.810;2023-08-30T06:56:30;17.00;99.90
24232;DHT22;12364;47.810;8.810;2023-08-30T06:58:57;17.10;99.90
24232;DHT22;12364;47.810;8.810;2023-08-30T07:01:24;17.00;99.90
24232;DHT22;12364;47.810;8.810;2023-08-30T07:03:51;17.10;99.90
24232;DHT22;12364;47.810;8.810;2023-08-30T07:06:18;17.10;99.90
24232;DHT22;12364;47.810;8.810;2023-08-30T07:08:45;17.10;99.90
24232;DHT22;12364;47.810;8.810;2023-08-30T07:11:12;17.10;99.90
24232;DHT22;12364;47.810;8.810;2023-08-30T07:13:58;17.00;99.90
24232;DHT22;12364;47.810;8.810;2023-08-30T07:16:25;17.10;99.90
24232;DHT22;12364;47.810;8.810;2023-08-30T07:18:52;17.00;99.90
24232;DHT22;12364;47.810;8.810;2023-08-30T07:21:19;17.10;99.90
24232;DHT22;12364;47.810;8.810;2023-08-30T07:23:46;17.00;99.90
24232;DHT22;12364;47.810;8.810;2023-08-30T07:26:13;17.10;99.90
24232;DHT22;12364;47.810;8.810;2023-08-30T07:28:40;17.10;99.90
24232;DHT22;12364;47.810;8.810;2023-08-30T07:31:07;17.10;99.90
24232;DHT22;12364;47.810;8.810;2023-08-30T07:33:34;17.20;99.90
24232;DHT22;12364;47.810;8.810;2023-08-30T07:36:02;17.20;99.90
24232;DHT22;12364;47.810;8.810;2023-08-30T07:38:29;17.20;99.90
24232;DHT22;12364;47.810;8.810;2023-08-30T07:40:56;17.20;99.90
24232;DHT22;12364;47.810;8.810;2023-08-30T07:43:23;17.30;99.90
24232;DHT22;12364;47.810;8.810;2023-08-30T07:45:50;17.30;99.90
24232;DHT22;12364;47.810;8.810;2023-08-30T07:48:17;17.30;99.90
24232;DHT22;12364;47.810;8.810;2023-08-30T07:50:44;17.30;99.90
24232;DHT22;12364;47.810;8.810;2023-08-30T07:53:11;17.50;99.90
24232;DHT22;12364;47.810;8.810;2023-08-30T07:55:39;17.40;99.90
24232;DHT22;12364;47.810;8.810;2023-08-30T07:58:06;17.40;99.90
24232;DHT22;12364;47.810;8.810;2023-08-30T08:00:37;17.40;99.90
24232;DHT22;12364;47.810;8.810;2023-08-30T08:03:04;17.30;99.90
24232;DHT22;12364;47.810;8.810;2023-08-30T08:05:31;17.30;99.90
24232;DHT22;12364;47.810;8.810;2023-08-30T08:07:59;17.30;99.90
24232;DHT22;12364;47.810;8.810;2023-08-30T08:10:26;17.30;99.90
24232;DHT22;12364;47.810;8.810;2023-08-30T08:12:53;17.30;99.90
24232;DHT22;12364;47.810;8.810;2023-08-30T08:15:22;17.30;99.90
24232;DHT22;12364;47.810;8.810;2023-08-30T08:17:49;17.40;99.90
24232;DHT22;12364;47.810;8.810;2023-08-30T08:20:16;17.40;99.90
24232;DHT22;12364;47.810;8.810;2023-08-30T08:22:43;17.40;99.90
24232;DHT22;12364;47.810;8.810;2023-08-30T08:25:11;17.50;99.90
24232;DHT22;12364;47.810;8.810;2023-08-30T08:27:38;17.50;99.90
24232;DHT22;12364;47.810;8.810;2023-08-30T08:30:05;17.60;99.90
24232;DHT22;12364;47.810;8.810;2023-08-30T08:32:32;17.70;99.90
24232;DHT22;12364;47.810;8.810;2023-08-30T08:35:00;17.70;99.90
24232;DHT22;12364;47.810;8.810;2023-08-30T08:37:27;17.90;99.90
24232;DHT22;12364;47.810;8.810;2023-08-30T08:39:54;17.80;99.90
24232;DHT22;12364;47.810;8.810;2023-08-30T08:42:21;17.80;99.90
24232;DHT22;12364;47.810;8.810;2023-08-30T08:44:51;17.80;99.90
24232;DHT22;12364;47.810;8.810;2023-08-30T08:47:20;17.90;99.90
24232;DHT22;12364;47.810;8.810;2023-08-30T08:49:47;17.90;99.90
24232;DHT22;12364;47.810;8.810;2023-08-30T08:52:14;18.00;99.90
24232;DHT22;12364;47.810;8.810;2023-08-30T08:54:57;17.90;99.90
24232;DHT22;12364;47.810;8.810;2023-08-30T08:57:24;17.90;99.90
24232;DHT22;12364;47.810;8.810;2023-08-30T08:59:51;18.00;99.90
24232;DHT22;12364;47.810;8.810;2023-08-30T09:02:18;17.90;99.90
24232;DHT22;12364;47.810;8.810;2023-08-30T09:04:45;18.00;99.90
24232;DHT22;12364;47.810;8.810;2023-08-30T09:07:12;18.00;99.90
24232;DHT22;12364;47.810;8.810;2023-08-30T09:09:39;18.00;99.90
24232;DHT22;12364;47.810;8.810;2023-08-30T09:12:06;18.00;99.90
24232;DHT22;12364;47.810;8.810;2023-08-30T09:14:33;18.00;99.90
24232;DHT22;12364;47.810;8.810;2023-08-30T09:17:02;18.00;99.90
24232;DHT22;12364;47.810;8.810;2023-08-30T09:19:29;18.10;99.90
24232;DHT22;12364;47.810;8.810;2023-08-30T09:21:57;18.10;99.90
24232;DHT22;12364;47.810;8.810;2023-08-30T09:24:24;18.20;99.90
24232;DHT22;12364;47.810;8.810;2023-08-30T09:26:52;18.20;99.90
24232;DHT22;12364;47.810;8.810;2023-08-30T09:29:20;18.30;99.90
24232;DHT22;12364;47.810;8.810;2023-08-30T09:31:50;18.30;99.90
24232;DHT22;12364;47.810;8.810;2023-08-30T09:34:21;18.30;99.90
24232;DHT22;12364;47.810;8.810;2023-08-30T09:36:48;18.30;99.90
24232;DHT22;12364;47.810;8.810;2023-08-30T09:39:17;18.30;99.90
24232;DHT22;12364;47.810;8.810;2023-08-30T09:41:45;18.30;99.90
24232;DHT22;12364;47.810;8.810;2023-08-30T09:44:18;18.20;99.00
24232;DHT22;12364;47.810;8.810;2023-08-30T09:46:49;18.00;99.30
24232;DHT22;12364;47.810;8.810;2023-08-30T09:49:20;18.00;99.90
24232;DHT22;12364;47.810;8.810;2023-08-30T09:51:48;18.00;99.90
24232;DHT22;12364;47.810;8.810;2023-08-30T09:54:16;18.10;99.90
24232;DHT22;12364;47.810;8.810;2023-08-30T09:57:02;18.10;99.90
24232;DHT22;12364;47.810;8.810;2023-08-30T09:59:30;18.20;99.90
24232;DHT22;12364;47.810;8.810;2023-08-30T10:01:57;18.20;99.90
24232;DHT22;12364;47.810;8.810;2023-08-30T10:04:27;18.30;99.90
24232;DHT22;12364;47.810;8.810;2023-08-30T10:06:55;18.40;99.90
24232;DHT22;12364;47.810;8.810;2023-08-30T10:09:24;18.40;99.90
24232;DHT22;12364;47.810;8.810;2023-08-30T10:11:51;18.50;99.90
24232;DHT22;12364;47.810;8.810;2023-08-30T10:14:18;18.50;99.90
24232;DHT22;12364;47.810;8.810;2023-08-30T10:16:46;18.50;99.60
24232;DHT22;12364;47.810;8.810;2023-08-30T10:19:26;18.50;99.90
24232;DHT22;12364;47.810;8.810;2023-08-30T10:21:57;18.60;99.90
24232;DHT22;12364;47.810;8.810;2023-08-30T10:24:26;18.60;99.60
24232;DHT22;12364;47.810;8.810;2023-08-30T10:27:01;18.60;99.60
24232;DHT22;12364;47.810;8.810;2023-08-30T10:29:31;18.70;99.60
24232;DHT22;12364;47.810;8.810;2023-08-30T10:32:05;18.70;99.40
24232;DHT22;12364;47.810;8.810;2023-08-30T10:34:35;18.80;99.90
24232;DHT22;12364;47.810;8.810;2023-08-30T10:37:05;18.80;99.90
24232;DHT22;12364;47.810;8.810;2023-08-30T10:39:36;18.80;99.80
24232;DHT22;12364;47.810;8.810;2023-08-30T10:42:13;18.90;99.90
24232;DHT22;12364;47.810;8.810;2023-08-30T10:44:50;18.90;99.70
24232;DHT22;12364;47.810;8.810;2023-08-30T10:47:26;18.90;99.40
24232;DHT22;12364;47.810;8.810;2023-08-30T10:49:56;18.90;99.10
24232;DHT22;12364;47.810;8.810;2023-08-30T10:52:23;18.90;98.80
24232;DHT22;12364;47.810;8.810;2023-08-30T10:54:50;18.90;99.30
24232;DHT22;12364;47.810;8.810;2023-08-30T10:57:18;19.10;99.20
24232;DHT22;12364;47.810;8.810;2023-08-30T11:00:04;19.10;99.00
24232;DHT22;12364;47.810;8.810;2023-08-30T11:02:31;19.10;99.60
24232;DHT22;12364;47.810;8.810;2023-08-30T11:04:59;19.10;98.90
24232;DHT22;12364;47.810;8.810;2023-08-30T11:07:27;19.10;99.20
24232;DHT22;12364;47.810;8.810;2023-08-30T11:09:54;19.20;99.40
24232;DHT22;12364;47.810;8.810;2023-08-30T11:12:21;19.20;99.60
24232;DHT22;12364;47.810;8.810;2023-08-30T11:14:56;19.30;99.30
24232;DHT22;12364;47.810;8.810;2023-08-30T11:17:25;19.30;99.10
24232;DHT22;12364;47.810;8.810;2023-08-30T11:20:04;19.40;99.00
24232;DHT22;12364;47.810;8.810;2023-08-30T11:22:32;19.40;99.10
24232;DHT22;12364;47.810;8.810;2023-08-30T11:24:59;19.40;98.70
24232;DHT22;12364;47.810;8.810;2023-08-30T11:27:26;19.60;98.50
24232;DHT22;12364;47.810;8.810;2023-08-30T11:29:53;19.40;99.10
24232;DHT22;12364;47.810;8.810;2023-08-30T11:32:25;19.40;98.60
24232;DHT22;12364;47.810;8.810;2023-08-30T11:34:55;19.40;98.10
24232;DHT22;12364;47.810;8.810;2023-08-30T11:37:23;19.50;98.40
24232;DHT22;12364;47.810;8.810;2023-08-30T11:39:53;19.50;98.00
24232;DHT22;12364;47.810;8.810;2023-08-30T11:42:21;19.60;98.40
24232;DHT22;12364;47.810;8.810;2023-08-30T11:44:49;19.90;98.90
24232;DHT22;12364;47.810;8.810;2023-08-30T11:47:19;19.70;98.90
24232;DHT22;12364;47.810;8.810;2023-08-30T11:49:48;19.60;96.60
24232;DHT22;12364;47.810;8.810;2023-08-30T11:52:16;19.60;96.30
24232;DHT22;12364;47.810;8.810;2023-08-30T11:54:44;19.70;96.70
24232;DHT22;12364;47.810;8.810;2023-08-30T11:57:11;19.70;97.00
24232;DHT22;12364;47.810;8.810;2023-08-30T11:59:38;19.70;96.70
24232;DHT22;12364;47.810;8.810;2023-08-30T12:02:08;19.80;96.70
24232;DHT22;12364;47.810;8.810;2023-08-30T12:04:41;19.80;96.20
24232;DHT22;12364;47.810;8.810;2023-08-30T12:07:09;19.80;96.60
24232;DHT22;12364;47.810;8.810;2023-08-30T12:09:38;19.90;96.50
24232;DHT22;12364;47.810;8.810;2023-08-30T12:12:13;20.00;96.40
24232;DHT22;12364;47.810;8.810;2023-08-30T12:14:40;20.00;96.00
24232;DHT22;12364;47.810;8.810;2023-08-30T12:17:08;20.00;95.80
24232;DHT22;12364;47.810;8.810;2023-08-30T12:19:35;19.90;96.00
24232;DHT22;12364;47.810;8.810;2023-08-30T12:22:05;19.90;96.70
24232;DHT22;12364;47.810;8.810;2023-08-30T12:24:45;19.90;96.40
24232;DHT22;12364;47.810;8.810;2023-08-30T12:27:12;20.00;96.20
24232;DHT22;12364;47.810;8.810;2023-08-30T12:29:40;20.00;95.60
24232;DHT22;12364;47.810;8.810;2023-08-30T12:32:07;20.10;96.20
24232;DHT22;12364;47.810;8.810;2023-08-30T12:34:34;20.10;96.00
24232;DHT22;12364;47.810;8.810;2023-08-30T12:37:02;20.10;96.20
24232;DHT22;12364;47.810;8.810;2023-08-30T12:39:31;20.10;95.80
24232;DHT22;12364;47.810;8.810;2023-08-30T12:41:59;20.20;95.20
24232;DHT22;12364;47.810;8.810;2023-08-30T12:44:26;20.20;95.10
24232;DHT22;12364;47.810;8.810;2023-08-30T12:46:53;20.20;95.80
24232;DHT22;12364;47.810;8.810;2023-08-30T12:49:20;20.30;96.40
24232;DHT22;12364;47.810;8.810;2023-08-30T12:51:47;20.30;95.60
24232;DHT22;12364;47.810;8.810;2023-08-30T12:54:14;20.30;95.90
24232;DHT22;12364;47.810;8.810;2023-08-30T12:56:41;20.40;96.40
24232;DHT22;12364;47.810;8.810;2023-08-30T12:59:08;20.40;96.20
24232;DHT22;12364;47.810;8.810;2023-08-30T13:01:35;20.50;96.40
24232;DHT22;12364;47.810;8.810;2023-08-30T13:04:07;20.50;95.50
24232;DHT22;12364;47.810;8.810;2023-08-30T13:06:34;20.40;95.60
24232;DHT22;12364;47.810;8.810;2023-08-30T13:09:01;20.50;94.60
24232;DHT22;12364;47.810;8.810;2023-08-30T13:11:30;20.40;94.90
24232;DHT22;12364;47.810;8.810;2023-08-30T13:13:59;20.40;94.90
24232;DHT22;12364;47.810;8.810;2023-08-30T13:16:26;20.40;94.30
24232;DHT22;12364;47.810;8.810;2023-08-30T13:18:53;20.40;95.60
24232;DHT22;12364;47.810;8.810;2023-08-30T13:21:20;20.30;94.30
24232;DHT22;12364;47.810;8.810;2023-08-30T13:24:01;20.30;93.70
24232;DHT22;12364;47.810;8.810;2023-08-30T13:26:29;20.30;93.10
24232;DHT22;12364;47.810;8.810;2023-08-30T13:28:56;20.20;93.40
24232;DHT22;12364;47.810;8.810;2023-08-30T13:31:25;20.30;94.30
24232;DHT22;12364;47.810;8.810;2023-08-30T13:33:52;20.30;93.70
24232;DHT22;12364;47.810;8.810;2023-08-30T13:36:19;20.40;94.90
24232;DHT22;12364;47.810;8.810;2023-08-30T13:38:46;20.20;94.60
24232;DHT22;12364;47.810;8.810;2023-08-30T13:41:13;20.20;94.20
24232;DHT22;12364;47.810;8.810;2023-08-30T13:43:40;20.00;94.50
24232;DHT22;12364;47.810;8.810;2023-08-30T13:46:07;20.00;94.50
24232;DHT22;12364;47.810;8.810;2023-08-30T13:48:34;19.90;94.70
24232;DHT22;12364;47.810;8.810;2023-08-30T13:51:01;19.90;94.40
24232;DHT22;12364;47.810;8.810;2023-08-30T13:53:28;19.90;94.50
24232;DHT22;12364;47.810;8.810;2023-08-30T13:55:55;19.80;93.90
24232;DHT22;12364;47.810;8.810;2023-08-30T13:58:22;19.80;93.60
24232;DHT22;12364;47.810;8.810;2023-08-30T14:00:49;19.70;94.20
24232;DHT22;12364;47.810;8.810;2023-08-30T14:03:16;19.70;92.50
24232;DHT22;12364;47.810;8.810;2023-08-30T14:05:43;19.60;91.90
24232;DHT22;12364;47.810;8.810;2023-08-30T14:08:10;19.60;92.40
24232;DHT22;12364;47.810;8.810;2023-08-30T14:10:38;19.60;93.00
24232;DHT22;12364;47.810;8.810;2023-08-30T14:13:05;19.70;93.40
24232;DHT22;12364;47.810;8.810;2023-08-30T14:15:32;19.70;93.60
24232;DHT22;12364;47.810;8.810;2023-08-30T14:17:59;19.80;93.20
24232;DHT22;12364;47.810;8.810;2023-08-30T14:20:27;19.80;92.90
24232;DHT22;12364;47.810;8.810;2023-08-30T14:22:54;19.80;92.70
24232;DHT22;12364;47.810;8.810;2023-08-30T14:25:21;19.80;93.00
24232;DHT22;12364;47.810;8.810;2023-08-30T14:27:48;19.80;93.40
24232;DHT22;12364;47.810;8.810;2023-08-30T14:30:15;19.80;93.30
24232;DHT22;12364;47.810;8.810;2023-08-30T14:32:43;19.80;93.00
24232;DHT22;12364;47.810;8.810;2023-08-30T14:35:10;19.80;92.80
24232;DHT22;12364;47.810;8.810;2023-08-30T14:37:38;19.80;92.80
24232;DHT22;12364;47.810;8.810;2023-08-30T14:40:06;19.80;93.00
24232;DHT22;12364;47.810;8.810;2023-08-30T14:42:33;19.80;93.40
24232;DHT22;12364;47.810;8.810;2023-08-30T14:45:00;19.80;93.60
24232;DHT22;12364;47.810;8.810;2023-08-30T14:47:29;19.70;94.30
24232;DHT22;12364;47.810;8.810;2023-08-30T14:49:56;19.70;93.60
24232;DHT22;12364;47.810;8.810;2023-08-30T14:52:23;19.80;93.70
24232;DHT22;12364;47.810;8.810;2023-08-30T14:54:50;20.00;93.70
24232;DHT22;12364;47.810;8.810;2023-08-30T14:57:17;19.80;93.90
24232;DHT22;12364;47.810;8.810;2023-08-30T14:59:46;19.80;93.80
24232;DHT22;12364;47.810;8.810;2023-08-30T15:02:13;19.80;93.70
24232;DHT22;12364;47.810;8.810;2023-08-30T15:04:40;20.00;94.20
24232;DHT22;12364;47.810;8.810;2023-08-30T15:07:08;19.90;94.90
24232;DHT22;12364;47.810;8.810;2023-08-30T15:09:35;19.80;95.30
24232;DHT22;12364;47.810;8.810;2023-08-30T15:12:02;19.70;95.70
24232;DHT22;12364;47.810;8.810;2023-08-30T15:14:31;19.70;96.00
24232;DHT22;12364;47.810;8.810;2023-08-30T15:16:59;19.80;96.20
24232;DHT22;12364;47.810;8.810;2023-08-30T15:19:26;19.60;96.60
24232;DHT22;12364;47.810;8.810;2023-08-30T15:21:53;19.60;97.10
24232;DHT22;12364;47.810;8.810;2023-08-30T15:24:20;19.60;96.70
24232;DHT22;12364;47.810;8.810;2023-08-30T15:26:47;19.70;95.70
24232;DHT22;12364;47.810;8.810;2023-08-30T15:29:15;19.50;96.30
24232;DHT22;12364;47.810;8.810;2023-08-30T15:31:42;19.70;97.20
24232;DHT22;12364;47.810;8.810;2023-08-30T15:34:10;19.50;98.30
24232;DHT22;12364;47.810;8.810;2023-08-30T15:36:37;19.40;98.20
24232;DHT22;12364;47.810;8.810;2023-08-30T15:39:03;19.40;98.50
24232;DHT22;12364;47.810;8.810;2023-08-30T15:41:30;19.40;98.50
24232;DHT22;12364;47.810;8.810;2023-08-30T15:43:57;19.30;98.20
24232;DHT22;12364;47.810;8.810;2023-08-30T15:46:25;19.30;98.40
24232;DHT22;12364;47.810;8.810;2023-08-30T15:48:52;19.30;98.50
24232;DHT22;12364;47.810;8.810;2023-08-30T15:51:21;19.20;98.10
24232;DHT22;12364;47.810;8.810;2023-08-30T15:53:51;19.10;98.80
24232;DHT22;12364;47.810;8.810;2023-08-30T15:56:22;19.00;99.50
24232;DHT22;12364;47.810;8.810;2023-08-30T15:58:50;18.70;99.90
24232;DHT22;12364;47.810;8.810;2023-08-30T16:01:17;18.50;99.90
24232;DHT22;12364;47.810;8.810;2023-08-30T16:03:47;18.40;99.90
24232;DHT22;12364;47.810;8.810;2023-08-30T16:06:14;18.40;99.90
24232;DHT22;12364;47.810;8.810;2023-08-30T16:08:41;18.40;99.90
24232;DHT22;12364;47.810;8.810;2023-08-30T16:11:08;18.50;99.90
24232;DHT22;12364;47.810;8.810;2023-08-30T16:13:35;18.50;99.90
24232;DHT22;12364;47.810;8.810;2023-08-30T16:16:02;18.50;99.90
24232;DHT22;12364;47.810;8.810;2023-08-30T16:18:29;18.60;99.90
24232;DHT22;12364;47.810;8.810;2023-08-30T16:20:56;18.60;99.90
24232;DHT22;12364;47.810;8.810;2023-08-30T16:23:23;18.70;99.90
24232;DHT22;12364;47.810;8.810;2023-08-30T16:25:56;18.70;99.90
24232;DHT22;12364;47.810;8.810;2023-08-30T16:28:24;18.80;99.90
24232;DHT22;12364;47.810;8.810;2023-08-30T16:30:55;18.80;99.90
24232;DHT22;12364;47.810;8.810;2023-08-30T16:33:22;18.80;99.90
24232;DHT22;12364;47.810;8.810;2023-08-30T16:35:49;18.90;99.90
24232;DHT22;12364;47.810;8.810;2023-08-30T16:38:17;18.90;99.90
24232;DHT22;12364;47.810;8.810;2023-08-30T16:40:43;18.90;99.90
24232;DHT22;12364;47.810;8.810;2023-08-30T16:43:10;19.00;99.90
24232;DHT22;12364;47.810;8.810;2023-08-30T16:45:38;19.00;99.90
24232;DHT22;12364;47.810;8.810;2023-08-30T16:48:05;19.00;99.90
24232;DHT22;12364;47.810;8.810;2023-08-30T16:50:33;19.00;99.90
24232;DHT22;12364;47.810;8.810;2023-08-30T16:53:03;19.00;99.90
24232;DHT22;12364;47.810;8.810;2023-08-30T16:55:31;19.00;99.90
24232;DHT22;12364;47.810;8.810;2023-08-30T16:57:58;19.10;99.90
24232;DHT22;12364;47.810;8.810;2023-08-30T17:00:25;19.10;99.90
24232;DHT22;12364;47.810;8.810;2023-08-30T17:02:52;19.10;99.90
24232;DHT22;12364;47.810;8.810;2023-08-30T17:05:20;19.10;99.90
24232;DHT22;12364;47.810;8.810;2023-08-30T17:07:50;19.10;99.90
24232;DHT22;12364;47.810;8.810;2023-08-30T17:10:17;19.20;99.90
24232;DHT22;12364;47.810;8.810;2023-08-30T17:12:44;19.10;99.90
24232;DHT22;12364;47.810;8.810;2023-08-30T17:15:11;19.10;99.90
24232;DHT22;12364;47.810;8.810;2023-08-30T17:17:38;19.10;99.90
24232;DHT22;12364;47.810;8.810;2023-08-30T17:20:05;19.10;99.90
24232;DHT22;12364;47.810;8.810;2023-08-30T17:22:33;19.10;99.90
24232;DHT22;12364;47.810;8.810;2023-08-30T17:25:00;19.10;99.90
24232;DHT22;12364;47.810;8.810;2023-08-30T17:27:27;19.00;99.90
24232;DHT22;12364;47.810;8.810;2023-08-30T17:29:54;19.20;99.90
24232;DHT22;12364;47.810;8.810;2023-08-30T17:32:21;19.00;99.90
24232;DHT22;12364;47.810;8.810;2023-08-30T17:34:48;19.20;99.90
24232;DHT22;12364;47.810;8.810;2023-08-30T17:37:15;18.90;99.90
24232;DHT22;12364;47.810;8.810;2023-08-30T17:39:42;18.90;99.90
24232;DHT22;12364;47.810;8.810;2023-08-30T17:42:09;18.90;99.90
24232;DHT22;12364;47.810;8.810;2023-08-30T17:44:36;18.80;99.90
24232;DHT22;12364;47.810;8.810;2023-08-30T17:47:12;19.00;99.90
24232;DHT22;12364;47.810;8.810;2023-08-30T17:49:39;19.00;99.90
24232;DHT22;12364;47.810;8.810;2023-08-30T17:52:06;18.80;99.90
24232;DHT22;12364;47.810;8.810;2023-08-30T17:54:34;18.80;99.90
24232;DHT22;12364;47.810;8.810;2023-08-30T17:57:02;18.80;99.90
24232;DHT22;12364;47.810;8.810;2023-08-30T17:59:29;18.80;99.90
24232;DHT22;12364;47.810;8.810;2023-08-30T18:01:58;18.80;99.90
24232;DHT22;12364;47.810;8.810;2023-08-30T18:04:25;18.70;99.90
24232;DHT22;12364;47.810;8.810;2023-08-30T18:06:52;18.70;99.90
24232;DHT22;12364;47.810;8.810;2023-08-30T18:09:20;18.70;99.90
24232;DHT22;12364;47.810;8.810;2023-08-30T18:11:47;18.70;99.90
24232;DHT22;12364;47.810;8.810;2023-08-30T18:14:15;18.70;99.90
24232;DHT22;12364;47.810;8.810;2023-08-30T18:16:42;18.70;99.90
24232;DHT22;12364;47.810;8.810;2023-08-30T18:19:09;18.70;99.90
24232;DHT22;12364;47.810;8.810;2023-08-30T18:21:36;18.70;99.90
24232;DHT22;12364;47.810;8.810;2023-08-30T18:26:39;18.50;99.90
24232;DHT22;12364;47.810;8.810;2023-08-30T18:29:07;18.50;99.90
24232;DHT22;12364;47.810;8.810;2023-08-30T18:31:34;18.50;99.90
24232;DHT22;12364;47.810;8.810;2023-08-30T18:34:01;18.50;99.90
24232;DHT22;12364;47.810;8.810;2023-08-30T18:36:28;18.50;99.90
24232;DHT22;12364;47.810;8.810;2023-08-30T18:38:55;18.50;99.90
24232;DHT22;12364;47.810;8.810;2023-08-30T18:41:23;18.40;99.90
24232;DHT22;12364;47.810;8.810;2023-08-30T18:43:50;18.40;99.90
24232;DHT22;12364;47.810;8.810;2023-08-30T18:46:17;18.40;99.90
24232;DHT22;12364;47.810;8.810;2023-08-30T18:48:47;18.40;99.90
24232;DHT22;12364;47.810;8.810;2023-08-30T18:51:15;18.40;99.90
24232;DHT22;12364;47.810;8.810;2023-08-30T18:53:45;18.40;99.90
24232;DHT22;12364;47.810;8.810;2023-08-30T18:56:12;18.30;99.90
24232;DHT22;12364;47.810;8.810;2023-08-30T18:58:41;18.30;99.90
24232;DHT22;12364;47.810;8.810;2023-08-30T19:01:09;18.30;99.90
24232;DHT22;12364;47.810;8.810;2023-08-30T19:03:38;18.30;99.90
24232;DHT22;12364;47.810;8.810;2023-08-30T19:06:06;18.30;99.90
24232;DHT22;12364;47.810;8.810;2023-08-30T19:08:34;18.30;99.90
24232;DHT22;12364;47.810;8.810;2023-08-30T19:11:01;18.30;99.90
24232;DHT22;12364;47.810;8.810;2023-08-30T19:13:28;18.20;99.90
24232;DHT22;12364;47.810;8.810;2023-08-30T19:15:55;18.10;99.90
24232;DHT22;12364;47.810;8.810;2023-08-30T19:18:22;18.10;99.90
24232;DHT22;12364;47.810;8.810;2023-08-30T19:20:57;18.10;99.90
24232;DHT22;12364;47.810;8.810;2023-08-30T19:23:24;18.10;99.90